sensor_id;sensor_type;location;lat;lon;timestamp;temperature;humidity
35746;DHT22;21870;42.812;74.628;2023-06-22T00:02:14;20.30;99.90
35746;DHT22;21870;42.812;74.628;2023-06-22T00:04:40;20.30;99.90
35746;DHT22;21870;42.812;74.628;2023-06-22T00:07:06;20.40;99.90
35746;DHT22;21870;42.812;74.628;2023-06-22T00:09:33;20.40;99.90
35746;DHT22;21870;42.812;74.628;2023-06-22T00:11:59;20.50;99.90
35746;DHT22;21870;42.812;74.628;2023-06-22T00:14:25;20.60;99.90
35746;DHT22;21870;42.812;74.628;2023-06-22T00:16:51;20.50;99.90
35746;DHT22;21870;42.812;74.628;2023-06-22T00:19:23;20.60;99.90
35746;DHT22;21870;42.812;74.628;2023-06-22T00:21:51;20.50;99.90
35746;DHT22;21870;42.812;74.628;2023-06-22T00:24:20;20.60;99.90
35746;DHT22;21870;42.812;74.628;2023-06-22T00:26:49;20.60;99.90
35746;DHT22;21870;42.812;74.628;2023-06-22T00:29:15;20.60;99.90
35746;DHT22;21870;42.812;74.628;2023-06-22T00:31:42;20.60;99.90
35746;DHT22;21870;42.812;74.628;2023-06-22T00:34:08;20.70;99.90
35746;DHT22;21870;42.812;74.628;2023-06-22T00:36:35;20.70;99.90
35746;DHT22;21870;42.812;74.628;2023-06-22T00:39:02;20.80;99.90
35746;DHT22;21870;42.812;74.628;2023-06-22T00:41:31;20.90;99.90
35746;DHT22;21870;42.812;74.628;2023-06-22T00:43:57;20.90;99.90
35746;DHT22;21870;42.812;74.628;2023-06-22T00:46:23;21.00;99.90
35746;DHT22;21870;42.812;74.628;2023-06-22T00:48:52;21.10;99.90
35746;DHT22;21870;42.812;74.628;2023-06-22T00:51:19;21.10;99.90
35746;DHT22;21870;42.812;74.628;2023-06-22T00:53:50;21.10;99.90
35746;DHT22;21870;42.812;74.628;2023-06-22T00:56:17;21.10;99.90
35746;DHT22;21870;42.812;74.628;2023-06-22T00:58:46;21.20;99.90
35746;DHT22;21870;42.812;74.628;2023-06-22T01:01:13;21.30;99.90
35746;DHT22;21870;42.812;74.628;2023-06-22T01:03:39;21.30;99.90
35746;DHT22;21870;42.812;74.628;2023-06-22T01:06:16;21.40;99.90
35746;DHT22;21870;42.812;74.628;2023-06-22T01:08:51;21.40;99.90
35746;DHT22;21870;42.812;74.628;2023-06-22T01:11:28;21.40;99.90
35746;DHT22;21870;42.812;74.628;2023-06-22T01:14:03;21.60;99.90
35746;DHT22;21870;42.812;74.628;2023-06-22T01:16:33;21.60;99.90
35746;DHT22;21870;42.812;74.628;2023-06-22T01:19:29;21.70;99.90
35746;DHT22;21870;42.812;74.628;2023-06-22T01:21:58;21.80;99.90
35746;DHT22;21870;42.812;74.628;2023-06-22T01:25:12;21.90;99.90
35746;DHT22;21870;42.812;74.628;2023-06-22T01:30:28;22.10;99.90
35746;DHT22;21870;42.812;74.628;2023-06-22T01:32:56;22.10;99.90
35746;DHT22;21870;42.812;74.628;2023-06-22T01:35:23;22.10;99.90
35746;DHT22;21870;42.812;74.628;2023-06-22T01:37:50;22.20;99.90
35746;DHT22;21870;42.812;74.628;2023-06-22T01:40:17;22.30;99.90
35746;DHT22;21870;42.812;74.628;2023-06-22T01:42:44;22.30;99.90
35746;DHT22;21870;42.812;74.628;2023-06-22T01:45:14;22.30;99.90
35746;DHT22;21870;42.812;74.628;2023-06-22T01:47:42;22.40;99.90
35746;DHT22;21870;42.812;74.628;2023-06-22T01:50:09;22.50;99.90
35746;DHT22;21870;42.812;74.628;2023-06-22T01:52:35;22.60;99.90
35746;DHT22;21870;42.812;74.628;2023-06-22T01:55:01;22.70;99.90
35746;DHT22;21870;42.812;74.628;2023-06-22T01:57:27;22.80;99.90
35746;DHT22;21870;42.812;74.628;2023-06-22T02:00:03;22.90;99.90
35746;DHT22;21870;42.812;74.628;2023-06-22T02:05:17;23.10;99.90
35746;DHT22;21870;42.812;74.628;2023-06-22T02:08:07;23.30;99.90
35746;DHT22;21870;42.812;74.628;2023-06-22T02:10:36;23.40;99.90
35746;DHT22;21870;42.812;74.628;2023-06-22T02:13:06;23.50;99.90
35746;DHT22;21870;42.812;74.628;2023-06-22T02:15:32;23.70;99.90
35746;DHT22;21870;42.812;74.628;2023-06-22T02:17:59;23.80;99.90
35746;DHT22;21870;42.812;74.628;2023-06-22T02:20:25;23.90;99.90
35746;DHT22;21870;42.812;74.628;2023-06-22T02:22:51;23.90;99.90
35746;DHT22;21870;42.812;74.628;2023-06-22T02:25:17;24.00;99.90
35746;DHT22;21870;42.812;74.628;2023-06-22T02:27:44;23.90;99.90
35746;DHT22;21870;42.812;74.628;2023-06-22T02:30:11;24.00;99.90
35746;DHT22;21870;42.812;74.628;2023-06-22T02:32:37;24.00;99.90
35746;DHT22;21870;42.812;74.628;2023-06-22T02:35:10;24.10;99.90
35746;DHT22;21870;42.812;74.628;2023-06-22T02:37:37;24.20;99.90
35746;DHT22;21870;42.812;74.628;2023-06-22T02:40:08;24.40;99.90
35746;DHT22;21870;42.812;74.628;2023-06-22T02:42:35;24.60;99.90
35746;DHT22;21870;42.812;74.628;2023-06-22T02:45:01;24.60;99.90
35746;DHT22;21870;42.812;74.628;2023-06-22T02:47:28;24.70;99.90
35746;DHT22;21870;42.812;74.628;2023-06-22T02:49:54;24.80;99.90
35746;DHT22;21870;42.812;74.628;2023-06-22T02:52:20;25.00;99.90
35746;DHT22;21870;42.812;74.628;2023-06-22T02:54:46;25.00;99.90
35746;DHT22;21870;42.812;74.628;2023-06-22T02:57:12;25.20;99.90
35746;DHT22;21870;42.812;74.628;2023-06-22T02:59:42;25.20;99.90
35746;DHT22;21870;42.812;74.628;2023-06-22T03:02:09;25.20;99.90
35746;DHT22;21870;42.812;74.628;2023-06-22T03:04:36;25.40;99.90
35746;DHT22;21870;42.812;74.628;2023-06-22T03:07:02;25.50;99.90
35746;DHT22;21870;42.812;74.628;2023-06-22T03:09:28;25.40;99.90
35746;DHT22;21870;42.812;74.628;2023-06-22T03:11:55;25.40;99.90
35746;DHT22;21870;42.812;74.628;2023-06-22T03:14:21;25.40;99.90
35746;DHT22;21870;42.812;74.628;2023-06-22T03:16:47;25.40;99.90
35746;DHT22;21870;42.812;74.628;2023-06-22T03:19:13;25.50;99.90
35746;DHT22;21870;42.812;74.628;2023-06-22T03:21:40;25.60;99.90
35746;DHT22;21870;42.812;74.628;2023-06-22T03:24:06;25.70;99.90
35746;DHT22;21870;42.812;74.628;2023-06-22T03:26:33;25.70;99.90
35746;DHT22;21870;42.812;74.628;2023-06-22T03:29:00;25.60;99.90
35746;DHT22;21870;42.812;74.628;2023-06-22T03:31:26;25.60;99.90
35746;DHT22;21870;42.812;74.628;2023-06-22T03:33:52;25.70;99.90
35746;DHT22;21870;42.812;74.628;2023-06-22T03:36:18;25.80;99.90
35746;DHT22;21870;42.812;74.628;2023-06-22T03:38:48;26.00;99.90
35746;DHT22;21870;42.812;74.628;2023-06-22T03:41:15;26.20;99.90
35746;DHT22;21870;42.812;74.628;2023-06-22T03:43:41;26.30;99.90
35746;DHT22;21870;42.812;74.628;2023-06-22T03:46:08;26.40;99.90
35746;DHT22;21870;42.812;74.628;2023-06-22T03:48:34;26.50;99.90
35746;DHT22;21870;42.812;74.628;2023-06-22T03:51:00;26.40;99.90
35746;DHT22;21870;42.812;74.628;2023-06-22T03:53:27;26.70;99.90
35746;DHT22;21870;42.812;74.628;2023-06-22T03:55:53;26.80;99.90
35746;DHT22;21870;42.812;74.628;2023-06-22T03:58:20;26.80;99.90
35746;DHT22;21870;42.812;74.628;2023-06-22T04:00:51;26.80;99.90
35746;DHT22;21870;42.812;74.628;2023-06-22T04:03:18;26.80;99.90
35746;DHT22;21870;42.812;74.628;2023-06-22T04:05:45;26.90;99.90
35746;DHT22;21870;42.812;74.628;2023-06-22T04:08:12;26.90;99.90
35746;DHT22;21870;42.812;74.628;2023-06-22T04:10:38;27.00;99.90
35746;DHT22;21870;42.812;74.628;2023-06-22T04:13:04;27.10;99.90
35746;DHT22;21870;42.812;74.628;2023-06-22T04:15:31;27.00;99.90
35746;DHT22;21870;42.812;74.628;2023-06-22T04:17:57;27.00;99.90
35746;DHT22;21870;42.812;74.628;2023-06-22T04:20:23;27.10;99.90
35746;DHT22;21870;42.812;74.628;2023-06-22T04:22:53;27.20;99.90
35746;DHT22;21870;42.812;74.628;2023-06-22T04:25:20;27.20;99.90
35746;DHT22;21870;42.812;74.628;2023-06-22T04:27:46;27.20;99.80
35746;DHT22;21870;42.812;74.628;2023-06-22T04:30:13;27.20;99.90
35746;DHT22;21870;42.812;74.628;2023-06-22T04:32:42;27.30;99.90
35746;DHT22;21870;42.812;74.628;2023-06-22T04:35:09;27.30;99.90
35746;DHT22;21870;42.812;74.628;2023-06-22T04:37:35;27.40;99.90
35746;DHT22;21870;42.812;74.628;2023-06-22T04:40:01;27.40;99.90
35746;DHT22;21870;42.812;74.628;2023-06-22T04:42:29;27.40;99.90
35746;DHT22;21870;42.812;74.628;2023-06-22T04:44:56;27.40;99.90
35746;DHT22;21870;42.812;74.628;2023-06-22T04:47:22;27.40;99.90
35746;DHT22;21870;42.812;74.628;2023-06-22T04:49:48;27.40;99.90
35746;DHT22;21870;42.812;74.628;2023-06-22T04:52:14;27.50;99.90
35746;DHT22;21870;42.812;74.628;2023-06-22T04:54:43;27.50;99.90
35746;DHT22;21870;42.812;74.628;2023-06-22T04:57:13;27.80;99.90
35746;DHT22;21870;42.812;74.628;2023-06-22T04:59:40;27.80;99.90
35746;DHT22;21870;42.812;74.628;2023-06-22T05:02:07;27.90;99.90
35746;DHT22;21870;42.812;74.628;2023-06-22T05:04:34;27.90;99.90
35746;DHT22;21870;42.812;74.628;2023-06-22T05:07:02;27.80;99.90
35746;DHT22;21870;42.812;74.628;2023-06-22T05:09:29;27.80;99.90
35746;DHT22;21870;42.812;74.628;2023-06-22T05:11:55;28.00;99.90
35746;DHT22;21870;42.812;74.628;2023-06-22T05:14:26;28.10;99.40
35746;DHT22;21870;42.812;74.628;2023-06-22T05:16:52;28.10;97.90
35746;DHT22;21870;42.812;74.628;2023-06-22T05:19:18;28.30;99.90
35746;DHT22;21870;42.812;74.628;2023-06-22T05:21:44;28.50;99.90
35746;DHT22;21870;42.812;74.628;2023-06-22T05:24:10;28.70;97.50
35746;DHT22;21870;42.812;74.628;2023-06-22T05:26:36;28.70;96.90
35746;DHT22;21870;42.812;74.628;2023-06-22T05:29:03;28.80;96.30
35746;DHT22;21870;42.812;74.628;2023-06-22T05:31:29;29.00;96.10
35746;DHT22;21870;42.812;74.628;2023-06-22T05:33:56;29.10;97.40
35746;DHT22;21870;42.812;74.628;2023-06-22T05:36:22;29.10;96.10
35746;DHT22;21870;42.812;74.628;2023-06-22T05:38:55;29.20;98.50
35746;DHT22;21870;42.812;74.628;2023-06-22T05:41:22;29.30;97.00
35746;DHT22;21870;42.812;74.628;2023-06-22T05:43:48;29.40;97.40
35746;DHT22;21870;42.812;74.628;2023-06-22T05:46:14;29.50;97.40
35746;DHT22;21870;42.812;74.628;2023-06-22T05:48:40;29.70;97.40
35746;DHT22;21870;42.812;74.628;2023-06-22T05:51:06;29.80;95.00
35746;DHT22;21870;42.812;74.628;2023-06-22T05:53:32;29.80;93.70
35746;DHT22;21870;42.812;74.628;2023-06-22T05:55:58;29.80;93.70
35746;DHT22;21870;42.812;74.628;2023-06-22T05:58:24;29.90;95.70
35746;DHT22;21870;42.812;74.628;2023-06-22T06:00:50;29.90;94.90
35746;DHT22;21870;42.812;74.628;2023-06-22T06:03:17;30.00;95.40
35746;DHT22;21870;42.812;74.628;2023-06-22T06:05:43;30.20;92.50
35746;DHT22;21870;42.812;74.628;2023-06-22T06:08:10;30.30;92.00
35746;DHT22;21870;42.812;74.628;2023-06-22T06:10:37;30.40;91.60
35746;DHT22;21870;42.812;74.628;2023-06-22T06:13:04;30.20;91.90
35746;DHT22;21870;42.812;74.628;2023-06-22T06:15:31;30.30;91.30
35746;DHT22;21870;42.812;74.628;2023-06-22T06:17:57;30.20;91.00
35746;DHT22;21870;42.812;74.628;2023-06-22T06:20:25;30.30;92.60
35746;DHT22;21870;42.812;74.628;2023-06-22T06:22:51;30.20;91.60
35746;DHT22;21870;42.812;74.628;2023-06-22T06:25:18;30.00;92.10
35746;DHT22;21870;42.812;74.628;2023-06-22T06:27:46;30.20;91.00
35746;DHT22;21870;42.812;74.628;2023-06-22T06:30:13;30.20;90.50
35746;DHT22;21870;42.812;74.628;2023-06-22T06:32:42;30.30;91.30
35746;DHT22;21870;42.812;74.628;2023-06-22T06:35:09;30.30;90.20
35746;DHT22;21870;42.812;74.628;2023-06-22T06:37:47;30.40;88.60
35746;DHT22;21870;42.812;74.628;2023-06-22T06:40:15;30.50;89.40
35746;DHT22;21870;42.812;74.628;2023-06-22T06:42:45;30.70;87.70
35746;DHT22;21870;42.812;74.628;2023-06-22T06:45:15;30.70;89.20
35746;DHT22;21870;42.812;74.628;2023-06-22T06:47:41;30.90;91.80
35746;DHT22;21870;42.812;74.628;2023-06-22T06:50:07;31.00;88.40
35746;DHT22;21870;42.812;74.628;2023-06-22T06:52:34;31.10;87.60
35746;DHT22;21870;42.812;74.628;2023-06-22T06:55:00;30.90;86.00
35746;DHT22;21870;42.812;74.628;2023-06-22T06:57:26;31.10;86.50
35746;DHT22;21870;42.812;74.628;2023-06-22T06:59:57;31.30;88.80
35746;DHT22;21870;42.812;74.628;2023-06-22T07:02:24;31.40;87.40
35746;DHT22;21870;42.812;74.628;2023-06-22T07:04:50;31.40;86.00
35746;DHT22;21870;42.812;74.628;2023-06-22T07:07:16;31.40;86.20
35746;DHT22;21870;42.812;74.628;2023-06-22T07:09:42;31.60;86.80
35746;DHT22;21870;42.812;74.628;2023-06-22T07:12:08;31.50;86.50
35746;DHT22;21870;42.812;74.628;2023-06-22T07:14:35;31.70;83.90
35746;DHT22;21870;42.812;74.628;2023-06-22T07:17:01;31.70;85.90
35746;DHT22;21870;42.812;74.628;2023-06-22T07:19:27;31.70;86.70
35746;DHT22;21870;42.812;74.628;2023-06-22T07:21:54;31.60;86.50
35746;DHT22;21870;42.812;74.628;2023-06-22T07:24:24;31.70;87.00
35746;DHT22;21870;42.812;74.628;2023-06-22T07:26:51;31.80;87.30
35746;DHT22;21870;42.812;74.628;2023-06-22T07:29:21;31.80;88.30
35746;DHT22;21870;42.812;74.628;2023-06-22T07:31:48;31.80;85.50
35746;DHT22;21870;42.812;74.628;2023-06-22T07:34:15;31.70;86.20
35746;DHT22;21870;42.812;74.628;2023-06-22T07:36:44;31.70;87.00
35746;DHT22;21870;42.812;74.628;2023-06-22T07:39:10;31.90;86.20
35746;DHT22;21870;42.812;74.628;2023-06-22T07:41:38;32.00;88.40
35746;DHT22;21870;42.812;74.628;2023-06-22T07:44:04;32.20;90.20
35746;DHT22;21870;42.812;74.628;2023-06-22T07:46:32;32.20;90.50
35746;DHT22;21870;42.812;74.628;2023-06-22T07:48:58;32.20;88.40
35746;DHT22;21870;42.812;74.628;2023-06-22T07:51:25;32.30;89.60
35746;DHT22;21870;42.812;74.628;2023-06-22T07:53:51;32.50;90.20
35746;DHT22;21870;42.812;74.628;2023-06-22T07:56:18;32.50;90.80
35746;DHT22;21870;42.812;74.628;2023-06-22T07:58:47;32.30;89.40
35746;DHT22;21870;42.812;74.628;2023-06-22T08:01:17;32.20;87.90
35746;DHT22;21870;42.812;74.628;2023-06-22T08:03:45;32.10;87.40
35746;DHT22;21870;42.812;74.628;2023-06-22T08:06:11;32.10;88.90
35746;DHT22;21870;42.812;74.628;2023-06-22T08:08:37;32.10;85.70
35746;DHT22;21870;42.812;74.628;2023-06-22T08:11:03;32.20;87.30
35746;DHT22;21870;42.812;74.628;2023-06-22T08:13:30;32.30;86.10
35746;DHT22;21870;42.812;74.628;2023-06-22T08:15:56;32.50;83.90
35746;DHT22;21870;42.812;74.628;2023-06-22T08:18:22;32.60;85.60
35746;DHT22;21870;42.812;74.628;2023-06-22T08:20:48;32.30;82.80
35746;DHT22;21870;42.812;74.628;2023-06-22T08:23:15;32.30;85.70
35746;DHT22;21870;42.812;74.628;2023-06-22T08:25:41;32.30;82.40
35746;DHT22;21870;42.812;74.628;2023-06-22T08:28:07;32.40;81.50
35746;DHT22;21870;42.812;74.628;2023-06-22T08:30:33;32.40;83.90
35746;DHT22;21870;42.812;74.628;2023-06-22T08:32:59;32.50;82.50
35746;DHT22;21870;42.812;74.628;2023-06-22T08:35:25;32.60;80.80
35746;DHT22;21870;42.812;74.628;2023-06-22T08:37:51;32.60;80.10
35746;DHT22;21870;42.812;74.628;2023-06-22T08:40:21;32.60;81.90
35746;DHT22;21870;42.812;74.628;2023-06-22T08:42:54;32.70;81.00
35746;DHT22;21870;42.812;74.628;2023-06-22T08:45:20;32.70;81.00
35746;DHT22;21870;42.812;74.628;2023-06-22T08:47:46;32.80;86.80
35746;DHT22;21870;42.812;74.628;2023-06-22T08:50:12;33.00;84.70
35746;DHT22;21870;42.812;74.628;2023-06-22T08:52:40;33.00;87.10
35746;DHT22;21870;42.812;74.628;2023-06-22T08:55:09;33.00;88.20
35746;DHT22;21870;42.812;74.628;2023-06-22T08:57:36;33.00;86.70
35746;DHT22;21870;42.812;74.628;2023-06-22T09:00:07;33.00;89.10
35746;DHT22;21870;42.812;74.628;2023-06-22T09:02:40;33.00;87.40
35746;DHT22;21870;42.812;74.628;2023-06-22T09:05:07;33.00;89.10
35746;DHT22;21870;42.812;74.628;2023-06-22T09:07:33;33.00;88.10
35746;DHT22;21870;42.812;74.628;2023-06-22T09:10:00;32.70;87.10
35746;DHT22;21870;42.812;74.628;2023-06-22T09:12:26;32.60;88.10
35746;DHT22;21870;42.812;74.628;2023-06-22T09:14:53;32.60;87.10
35746;DHT22;21870;42.812;74.628;2023-06-22T09:17:19;32.40;87.80
35746;DHT22;21870;42.812;74.628;2023-06-22T09:19:45;32.40;86.50
35746;DHT22;21870;42.812;74.628;2023-06-22T09:22:12;32.50;89.50
35746;DHT22;21870;42.812;74.628;2023-06-22T09:24:38;32.50;88.20
35746;DHT22;21870;42.812;74.628;2023-06-22T09:27:04;32.60;87.90
35746;DHT22;21870;42.812;74.628;2023-06-22T09:29:30;32.60;88.50
35746;DHT22;21870;42.812;74.628;2023-06-22T09:31:59;32.70;87.80
35746;DHT22;21870;42.812;74.628;2023-06-22T09:34:26;32.70;90.50
35746;DHT22;21870;42.812;74.628;2023-06-22T09:36:52;32.80;88.70
35746;DHT22;21870;42.812;74.628;2023-06-22T09:39:18;33.00;90.80
35746;DHT22;21870;42.812;74.628;2023-06-22T09:41:44;32.90;90.20
35746;DHT22;21870;42.812;74.628;2023-06-22T09:44:10;32.90;86.00
35746;DHT22;21870;42.812;74.628;2023-06-22T09:46:36;32.70;88.00
35746;DHT22;21870;42.812;74.628;2023-06-22T09:49:02;32.80;88.20
35746;DHT22;21870;42.812;74.628;2023-06-22T09:51:29;32.70;84.90
35746;DHT22;21870;42.812;74.628;2023-06-22T09:53:55;32.50;86.60
35746;DHT22;21870;42.812;74.628;2023-06-22T09:56:21;32.20;84.90
35746;DHT22;21870;42.812;74.628;2023-06-22T09:58:47;32.20;85.10
35746;DHT22;21870;42.812;74.628;2023-06-22T10:01:15;32.20;86.60
35746;DHT22;21870;42.812;74.628;2023-06-22T10:03:42;32.40;85.80
35746;DHT22;21870;42.812;74.628;2023-06-22T10:06:11;32.30;86.30
35746;DHT22;21870;42.812;74.628;2023-06-22T10:08:37;32.50;85.80
35746;DHT22;21870;42.812;74.628;2023-06-22T10:11:03;32.60;85.70
35746;DHT22;21870;42.812;74.628;2023-06-22T10:13:30;32.60;87.40
35746;DHT22;21870;42.812;74.628;2023-06-22T10:15:56;32.50;88.20
35746;DHT22;21870;42.812;74.628;2023-06-22T10:18:22;32.60;87.70
35746;DHT22;21870;42.812;74.628;2023-06-22T10:20:49;32.50;87.40
35746;DHT22;21870;42.812;74.628;2023-06-22T10:23:19;32.60;87.40
35746;DHT22;21870;42.812;74.628;2023-06-22T10:25:45;32.60;84.60
35746;DHT22;21870;42.812;74.628;2023-06-22T10:28:13;32.60;84.90
35746;DHT22;21870;42.812;74.628;2023-06-22T10:30:40;32.70;82.80
35746;DHT22;21870;42.812;74.628;2023-06-22T10:33:09;32.70;82.00
35746;DHT22;21870;42.812;74.628;2023-06-22T10:35:36;32.70;85.40
35746;DHT22;21870;42.812;74.628;2023-06-22T10:38:06;32.70;82.50
35746;DHT22;21870;42.812;74.628;2023-06-22T10:40:32;32.70;84.40
35746;DHT22;21870;42.812;74.628;2023-06-22T10:42:58;32.70;81.20
35746;DHT22;21870;42.812;74.628;2023-06-22T10:45:25;32.60;82.00
35746;DHT22;21870;42.812;74.628;2023-06-22T10:47:51;32.70;81.50
35746;DHT22;21870;42.812;74.628;2023-06-22T10:50:18;32.70;80.90
35746;DHT22;21870;42.812;74.628;2023-06-22T10:52:44;32.50;83.00
35746;DHT22;21870;42.812;74.628;2023-06-22T10:55:10;32.50;81.00
35746;DHT22;21870;42.812;74.628;2023-06-22T10:57:36;32.50;81.50
35746;DHT22;21870;42.812;74.628;2023-06-22T11:00:05;32.30;79.90
35746;DHT22;21870;42.812;74.628;2023-06-22T11:02:32;32.20;81.40
35746;DHT22;21870;42.812;74.628;2023-06-22T11:04:58;32.20;81.20
35746;DHT22;21870;42.812;74.628;2023-06-22T11:07:26;32.30;81.80
35746;DHT22;21870;42.812;74.628;2023-06-22T11:09:54;32.20;82.00
35746;DHT22;21870;42.812;74.628;2023-06-22T11:12:20;32.20;80.70
35746;DHT22;21870;42.812;74.628;2023-06-22T11:14:46;32.00;80.90
35746;DHT22;21870;42.812;74.628;2023-06-22T11:17:13;31.80;78.30
35746;DHT22;21870;42.812;74.628;2023-06-22T11:19:39;31.70;77.00
35746;DHT22;21870;42.812;74.628;2023-06-22T11:22:05;31.60;78.90
35746;DHT22;21870;42.812;74.628;2023-06-22T11:24:32;31.50;79.20
35746;DHT22;21870;42.812;74.628;2023-06-22T11:26:58;31.50;78.80
35746;DHT22;21870;42.812;74.628;2023-06-22T11:29:24;31.60;78.30
35746;DHT22;21870;42.812;74.628;2023-06-22T11:31:50;31.60;78.00
35746;DHT22;21870;42.812;74.628;2023-06-22T11:34:16;31.60;78.40
35746;DHT22;21870;42.812;74.628;2023-06-22T11:36:43;31.60;77.60
35746;DHT22;21870;42.812;74.628;2023-06-22T11:39:09;31.30;80.30
35746;DHT22;21870;42.812;74.628;2023-06-22T11:41:35;31.30;81.50
35746;DHT22;21870;42.812;74.628;2023-06-22T11:44:02;31.20;79.40
35746;DHT22;21870;42.812;74.628;2023-06-22T11:46:30;31.00;81.50
35746;DHT22;21870;42.812;74.628;2023-06-22T11:48:57;31.00;81.00
35746;DHT22;21870;42.812;74.628;2023-06-22T11:51:23;30.90;79.20
35746;DHT22;21870;42.812;74.628;2023-06-22T11:53:49;30.80;81.30
35746;DHT22;21870;42.812;74.628;2023-06-22T11:56:15;30.80;81.00
35746;DHT22;21870;42.812;74.628;2023-06-22T11:58:41;30.80;81.70
35746;DHT22;21870;42.812;74.628;2023-06-22T12:01:08;30.70;80.30
35746;DHT22;21870;42.812;74.628;2023-06-22T12:03:34;30.50;80.30
35746;DHT22;21870;42.812;74.628;2023-06-22T12:06:00;30.50;79.70
35746;DHT22;21870;42.812;74.628;2023-06-22T12:08:26;30.30;79.70
35746;DHT22;21870;42.812;74.628;2023-06-22T12:10:52;30.10;79.00
35746;DHT22;21870;42.812;74.628;2023-06-22T12:13:22;30.10;80.00
35746;DHT22;21870;42.812;74.628;2023-06-22T12:15:49;30.00;79.80
35746;DHT22;21870;42.812;74.628;2023-06-22T12:18:17;29.80;79.40
35746;DHT22;21870;42.812;74.628;2023-06-22T12:20:46;29.70;78.80
35746;DHT22;21870;42.812;74.628;2023-06-22T12:23:12;29.70;79.50
35746;DHT22;21870;42.812;74.628;2023-06-22T12:25:38;29.50;79.60
35746;DHT22;21870;42.812;74.628;2023-06-22T12:28:04;29.40;79.70
35746;DHT22;21870;42.812;74.628;2023-06-22T12:30:32;29.30;79.30
35746;DHT22;21870;42.812;74.628;2023-06-22T12:32:58;29.20;80.30
35746;DHT22;21870;42.812;74.628;2023-06-22T12:35:24;29.10;79.40
35746;DHT22;21870;42.812;74.628;2023-06-22T12:37:50;29.00;80.20
35746;DHT22;21870;42.812;74.628;2023-06-22T12:40:16;28.90;80.30
35746;DHT22;21870;42.812;74.628;2023-06-22T12:42:42;28.90;80.20
35746;DHT22;21870;42.812;74.628;2023-06-22T12:45:09;28.90;82.30
35746;DHT22;21870;42.812;74.628;2023-06-22T12:47:35;28.90;80.90
35746;DHT22;21870;42.812;74.628;2023-06-22T12:50:01;28.80;81.10
35746;DHT22;21870;42.812;74.628;2023-06-22T12:52:29;28.80;80.00
35746;DHT22;21870;42.812;74.628;2023-06-22T12:54:55;28.70;80.70
35746;DHT22;21870;42.812;74.628;2023-06-22T12:57:21;28.70;79.60
35746;DHT22;21870;42.812;74.628;2023-06-22T12:59:48;28.70;79.20
35746;DHT22;21870;42.812;74.628;2023-06-22T13:02:14;28.70;79.40
35746;DHT22;21870;42.812;74.628;2023-06-22T13:04:40;28.70;79.90
35746;DHT22;21870;42.812;74.628;2023-06-22T13:07:07;28.60;80.10
35746;DHT22;21870;42.812;74.628;2023-06-22T13:09:33;28.60;80.60
35746;DHT22;21870;42.812;74.628;2023-06-22T13:12:00;28.60;80.80
35746;DHT22;21870;42.812;74.628;2023-06-22T13:14:29;28.50;80.00
35746;DHT22;21870;42.812;74.628;2023-06-22T13:16:58;28.60;79.70
35746;DHT22;21870;42.812;74.628;2023-06-22T13:19:24;28.40;80.40
35746;DHT22;21870;42.812;74.628;2023-06-22T13:21:51;28.40;80.10
35746;DHT22;21870;42.812;74.628;2023-06-22T13:24:17;28.30;80.70
35746;DHT22;21870;42.812;74.628;2023-06-22T13:26:43;28.30;80.80
35746;DHT22;21870;42.812;74.628;2023-06-22T13:29:09;28.20;81.20
35746;DHT22;21870;42.812;74.628;2023-06-22T13:31:35;28.20;79.80
35746;DHT22;21870;42.812;74.628;2023-06-22T13:34:01;28.30;81.30
35746;DHT22;21870;42.812;74.628;2023-06-22T13:36:27;28.20;81.60
35746;DHT22;21870;42.812;74.628;2023-06-22T13:38:56;28.20;80.80
35746;DHT22;21870;42.812;74.628;2023-06-22T13:41:22;28.10;80.70
35746;DHT22;21870;42.812;74.628;2023-06-22T13:43:48;28.10;81.20
35746;DHT22;21870;42.812;74.628;2023-06-22T13:46:14;28.10;80.00
35746;DHT22;21870;42.812;74.628;2023-06-22T13:48:40;28.00;80.50
35746;DHT22;21870;42.812;74.628;2023-06-22T13:51:09;28.00;82.50
35746;DHT22;21870;42.812;74.628;2023-06-22T13:53:35;27.90;82.00
35746;DHT22;21870;42.812;74.628;2023-06-22T13:56:01;27.90;81.30
35746;DHT22;21870;42.812;74.628;2023-06-22T13:58:30;27.90;81.30
35746;DHT22;21870;42.812;74.628;2023-06-22T14:00:56;27.90;81.60
35746;DHT22;21870;42.812;74.628;2023-06-22T14:03:22;27.90;81.00
35746;DHT22;21870;42.812;74.628;2023-06-22T14:05:48;27.80;80.60
35746;DHT22;21870;42.812;74.628;2023-06-22T14:08:15;27.80;81.10
35746;DHT22;21870;42.812;74.628;2023-06-22T14:10:41;27.80;81.20
35746;DHT22;21870;42.812;74.628;2023-06-22T14:13:07;27.70;81.40
35746;DHT22;21870;42.812;74.628;2023-06-22T14:15:33;27.60;80.60
35746;DHT22;21870;42.812;74.628;2023-06-22T14:17:59;27.60;80.90
35746;DHT22;21870;42.812;74.628;2023-06-22T14:20:25;27.50;81.20
35746;DHT22;21870;42.812;74.628;2023-06-22T14:22:51;27.50;83.10
35746;DHT22;21870;42.812;74.628;2023-06-22T14:25:17;27.60;81.00
35746;DHT22;21870;42.812;74.628;2023-06-22T14:27:43;27.50;82.30
35746;DHT22;21870;42.812;74.628;2023-06-22T14:30:10;27.50;83.50
35746;DHT22;21870;42.812;74.628;2023-06-22T14:32:36;27.40;83.80
35746;DHT22;21870;42.812;74.628;2023-06-22T14:35:02;27.30;83.90
35746;DHT22;21870;42.812;74.628;2023-06-22T14:37:28;27.20;84.20
35746;DHT22;21870;42.812;74.628;2023-06-22T14:39:55;27.20;86.50
35746;DHT22;21870;42.812;74.628;2023-06-22T14:42:21;27.10;86.60
35746;DHT22;21870;42.812;74.628;2023-06-22T14:44:47;27.10;86.10
35746;DHT22;21870;42.812;74.628;2023-06-22T14:47:14;27.10;85.60
35746;DHT22;21870;42.812;74.628;2023-06-22T14:49:40;27.10;85.40
35746;DHT22;21870;42.812;74.628;2023-06-22T14:52:07;27.00;86.20
35746;DHT22;21870;42.812;74.628;2023-06-22T14:54:33;27.00;85.20
35746;DHT22;21870;42.812;74.628;2023-06-22T14:56:59;26.90;84.20
35746;DHT22;21870;42.812;74.628;2023-06-22T14:59:25;26.80;84.50
35746;DHT22;21870;42.812;74.628;2023-06-22T15:01:52;26.80;84.50
35746;DHT22;21870;42.812;74.628;2023-06-22T15:04:18;26.70;84.50
35746;DHT22;21870;42.812;74.628;2023-06-22T15:06:44;26.70;84.40
35746;DHT22;21870;42.812;74.628;2023-06-22T15:09:10;26.80;84.30
35746;DHT22;21870;42.812;74.628;2023-06-22T15:11:36;26.80;87.10
35746;DHT22;21870;42.812;74.628;2023-06-22T15:14:03;26.70;88.80
35746;DHT22;21870;42.812;74.628;2023-06-22T15:16:29;26.60;89.70
35746;DHT22;21870;42.812;74.628;2023-06-22T15:18:55;26.50;90.00
35746;DHT22;21870;42.812;74.628;2023-06-22T15:21:21;26.40;89.70